Text Box: All records at near 07:00 local time
Kleivo 1 weather for Aug 2008
Month no. 21
Obs.
Da.
Temp. Dew Point Precip. Wind
Speed
Wind gusts Cloud cover Press. Humidity Wind dir. Sunny OPT
01.08.2008 19,6   0,0 0,0   10 995,1 69,0 0,0   97,5 %
02.08.2008 16,6   0,0 0,0   10 988,4 94,0 0,0   95,0 %
03.08.2008 15,1   0,0 0,0   10 984,0 93,0 0,0   95,0 %
04.08.2008 11,9   0,0 0,0   10 981,3 84,0 0,0   90,0 %
05.08.2008 14,4   0,0 0,0   10 987,0 94,0 0,0   92,5 %
06.08.2008 14,3   0,0 0,0   10 993,1 87,0 0,0   92,5 %
07.08.2008 13,5   0,0 0,0   10 986,0 94,0 0,0   92,5 %
08.08.2008 10,8   0,0 0,0   10 982,3 93,0 0,0   90,0 %
09.08.2008 13,0   0,0 0,0   8 986,1 81,0 0,0 1 87,5 %
10.08.2008 14,4   0,0 0,0   8 976,6 64,0 0,0 1 87,5 %
11.08.2008 11,8   0,0 0,0   1 970,9 94,0 0,0   67,5 %
12.08.2008 13,2   0,0 0,0   1 979,0 93,0 0,0   70,0 %
13.08.2008 12,4   0,0 0,0   6 970,5 89,0 0,0 1 80,0 %
14.08.2008 9,0   9,7 0,0   8 977,0 94,0 0,0 1 75,0 %
15.08.2008 10,4   0,0 0,0   2 992,2 91,0 0,0 1 70,0 %
16.08.2008 7,9   0,0 0,0   2 994,6 93,0 0,0 1 67,5 %
17.08.2008 25,3   0,0 0,0   2 994,2 42,0 0,0 1 80,0 %
18.08.2008 14,4   0,0 0,0   1 989,2 83,0 0,0 1 70,0 %
19.08.2008 10,6   0,0 0,0   8 983,7 93,0 0,0 1 85,0 %
20.08.2008 13,3   0,0 0,0   1 978,7 94,0 0,0   70,0 %
21.08.2008 12,3   0,0 0,0   1 987,5 92,0 0,0   67,5 %
22.08.2008 9,3   0,0 0,0   2 990,2 92,0 0,0   67,5 %
23.08.2008 8,9   0,0 0,0   8 991,9 91,0 0,0 1 82,5 %
24.08.2008 13,3   0,0 0,0   8 988,8 83,0 0,0 1 87,5 %
25.08.2008 16,3   0,0 0,0   1 986,8 67,0 0,0   72,5 %
26.08.2008 10,9   0,0 0,0   1 991,5 94,0 0,0   67,5 %
27.08.2008 12,6   0,0 0,0   1 989,2 84,0 0,0   70,0 %
28.08.2008 10,5   0,0 0,0   1 990,9 93,0 0,0   67,5 %
29.08.2008 7,1   0,0 0,0   1 995,6 92,0 0,0   62,5 %
30.08.2008 13,0   0,0 0,0   1 1001,4 82,0 0,0   70,0 %
31.08.2008 13,8   0,0 0,0   1 999,0 91,0 0,0   70,0 %
Avrg/Sum 12,9   9,7 0,0   5,0 987,2 86,5 0,0 11 78,7 %